Crystal City, Canada
Current Conditions -  °F | °C
As of 4:15 AM on Tuesday 27 Jan 2015 (Local Time) from K06D Reporting Station
Clear Clear  
Wind Chill: 20°   Ceiling: Unl
Heat Index: 28°   Visibility: 10mi
Dew Point: 28°   Wind: 9mph
Humidity: 100%   Direction: 190°S
Pressure: 29.91"   Gusts: NA
Location:  49.13°N, 98.95°W
Report Text: K06D 271015Z AUTO 19008KT 10SM CLR M02/M02 A2991 RMK AO2
Loading
Personal Weather Stations






























Interactive Weather Map New forecast layout! Learn more

10-Day Weather Forecast

Advertisements
Track Severe Weather on mobile